TimeCDT,TemperatureF,Dew PointF,Humidity,Sea Level PressureIn,VisibilityMPH,Wind Direction,Wind SpeedMPH,Gust SpeedMPH,PrecipitationIn,Events,Conditions,WindDirDegrees,DateUTC
12:15 AM,64.4,62.6,94,30.16,10.0,NNW,8.1,-,N/A,Rain,Rain,330,2013-09-16 05:15:00
12:35 AM,64.4,62.6,94,30.14,7.0,NE,11.5,-,0.06,Rain,Light Rain,40,2013-09-16 05:35:00
12:55 AM,64.4,62.6,94,30.14,10.0,NE,9.2,-,0.06,,Mostly Cloudy,40,2013-09-16 05:55:00
1:15 AM,64.4,62.6,94,30.15,10.0,NE,5.8,-,N/A,Rain,Light Rain,50,2013-09-16 06:15:00
1:35 AM,64.4,62.6,94,30.20,5.0,NW,17.3,23.0,0.04,Rain,Heavy Rain,310,2013-09-16 06:35:00
1:55 AM,62.6,62.6,100,30.20,7.0,North,12.7,20.7,0.10,Rain,Heavy Rain,350,2013-09-16 06:55:00
2:15 AM,62.6,62.6,100,30.22,4.0,North,4.6,-,0.06,Rain,Heavy Rain,360,2013-09-16 07:15:00
2:35 AM,62.6,62.6,100,30.23,7.0,NW,11.5,-,0.09,Rain,Light Rain,310,2013-09-16 07:35:00
2:55 AM,62.6,62.6,100,30.22,5.0,North,9.2,-,0.13,Rain,Light Rain,360,2013-09-16 07:55:00
3:15 AM,62.6,62.6,100,30.21,7.0,NNE,10.4,-,0.02,Rain,Light Rain,20,2013-09-16 08:15:00
3:35 AM,62.6,62.6,100,30.19,7.0,NE,9.2,-,0.03,Rain,Light Rain,40,2013-09-16 08:35:00
3:55 AM,62.6,62.6,100,30.19,7.0,NE,8.1,-,0.04,Rain,Light Rain,40,2013-09-16 08:55:00
4:15 AM,62.6,60.8,94,30.18,10.0,ENE,6.9,-,0.01,Rain,Light Rain,60,2013-09-16 09:15:00
4:35 AM,62.6,60.8,94,30.17,10.0,East,6.9,-,0.02,Rain,Rain,80,2013-09-16 09:35:00
4:55 AM,62.6,60.8,94,30.19,10.0,ESE,3.5,-,0.02,Rain,Light Rain,110,2013-09-16 09:55:00
5:15 AM,62.6,62.6,100,30.19,10.0,Calm,Calm,-,N/A,Rain,Light Rain,0,2013-09-16 10:15:00
5:35 AM,62.6,62.6,100,30.19,10.0,Calm,Calm,-,N/A,Rain,Light Rain,0,2013-09-16 10:35:00
5:55 AM,62.6,62.6,100,30.16,10.0,ENE,5.8,-,N/A,,Mostly Cloudy,60,2013-09-16 10:55:00
6:15 AM,62.6,62.6,100,30.16,10.0,NE,4.6,-,N/A,Rain,Light Rain,50,2013-09-16 11:15:00
6:35 AM,62.6,60.8,94,30.16,10.0,ENE,4.6,-,N/A,,Scattered Clouds,60,2013-09-16 11:35:00
6:55 AM,62.6,60.8,94,30.17,10.0,Calm,Calm,-,N/A,,Clear,0,2013-09-16 11:55:00
7:15 AM,62.6,60.8,94,30.18,10.0,Calm,Calm,-,N/A,,Mostly Cloudy,0,2013-09-16 12:15:00
7:35 AM,62.6,62.6,100,30.18,10.0,Calm,Calm,-,0.01,,Overcast,0,2013-09-16 12:35:00
7:55 AM,62.6,62.6,100,30.19,10.0,Calm,Calm,-,0.01,,Overcast,0,2013-09-16 12:55:00
8:15 AM,62.6,62.6,100,30.19,10.0,Calm,Calm,-,N/A,,Overcast,0,2013-09-16 13:15:00
8:35 AM,62.6,62.6,100,30.20,10.0,Calm,Calm,-,N/A,,Overcast,0,2013-09-16 13:35:00
8:55 AM,62.6,62.6,100,30.21,10.0,Calm,Calm,-,N/A,,Overcast,0,2013-09-16 13:55:00
9:15 AM,62.6,62.6,100,30.22,10.0,North,5.8,-,N/A,,Overcast,350,2013-09-16 14:15:00
9:35 AM,62.6,62.6,100,30.22,10.0,WNW,3.5,-,N/A,,Overcast,290,2013-09-16 14:35:00
9:55 AM,62.6,62.6,100,30.23,10.0,West,3.5,-,N/A,,Overcast,280,2013-09-16 14:55:00
10:15 AM,64.4,62.6,94,30.23,10.0,WNW,3.5,-,N/A,,Overcast,290,2013-09-16 15:15:00
10:35 AM,64.4,62.6,94,30.23,10.0,NW,4.6,-,N/A,,Overcast,320,2013-09-16 15:35:00
10:55 AM,66.2,62.6,88,30.23,10.0,North,6.9,-,N/A,,Overcast,10,2013-09-16 15:55:00
11:15 AM,68.0,62.6,83,30.23,10.0,NE,5.8,-,N/A,,Overcast,50,2013-09-16 16:15:00
11:35 AM,68.0,62.6,83,30.24,10.0,NE,4.6,-,N/A,,Mostly Cloudy,40,2013-09-16 16:35:00
11:55 AM,69.8,62.6,78,30.24,10.0,ENE,6.9,-,N/A,,Overcast,60,2013-09-16 16:55:00
12:15 PM,69.8,62.6,78,30.24,10.0,ENE,5.8,-,N/A,,Overcast,60,2013-09-16 17:15:00
12:35 PM,69.8,60.8,73,30.24,10.0,Calm,Calm,-,N/A,,Mostly Cloudy,0,2013-09-16 17:35:00
12:55 PM,71.6,60.8,69,30.23,10.0,Calm,Calm,-,N/A,,Mostly Cloudy,0,2013-09-16 17:55:00
1:15 PM,71.6,62.6,73,30.23,10.0,East,4.6,-,N/A,,Scattered Clouds,80,2013-09-16 18:15:00
1:35 PM,73.4,62.6,69,30.22,10.0,SSE,4.6,-,N/A,,Mostly Cloudy,150,2013-09-16 18:35:00
1:55 PM,75.2,62.6,65,30.22,10.0,ESE,3.5,-,N/A,,Mostly Cloudy,120,2013-09-16 18:55:00
2:15 PM,73.4,62.6,69,30.21,10.0,ENE,5.8,-,N/A,,Overcast,60,2013-09-16 19:15:00
2:35 PM,73.4,62.6,69,30.19,10.0,South,5.8,-,N/A,,Overcast,180,2013-09-16 19:35:00
2:55 PM,73.4,62.6,69,30.19,10.0,NE,5.8,-,N/A,,Overcast,50,2013-09-16 19:55:00
3:15 PM,77.0,62.6,61,30.18,10.0,NNE,4.6,-,N/A,,Overcast,20,2013-09-16 20:15:00
3:35 PM,75.2,62.6,65,30.17,10.0,ENE,4.6,-,N/A,,Mostly Cloudy,60,2013-09-16 20:35:00
3:55 PM,77.0,62.6,61,30.15,10.0,ENE,4.6,-,N/A,,Mostly Cloudy,60,2013-09-16 20:55:00
4:15 PM,77.0,62.6,61,30.14,10.0,NNE,6.9,-,N/A,,Mostly Cloudy,30,2013-09-16 21:15:00
4:35 PM,77.0,62.6,61,30.13,10.0,ENE,5.8,-,N/A,,Mostly Cloudy,60,2013-09-16 21:35:00
4:55 PM,77.0,62.6,61,30.13,10.0,NNE,9.2,-,N/A,,Mostly Cloudy,20,2013-09-16 21:55:00
5:15 PM,77.0,62.6,61,30.13,10.0,NE,9.2,-,N/A,,Scattered Clouds,50,2013-09-16 22:15:00
5:35 PM,77.0,62.6,61,30.13,10.0,NE,11.5,-,N/A,,Mostly Cloudy,40,2013-09-16 22:35:00
5:55 PM,77.0,64.4,65,30.12,10.0,NE,10.4,-,N/A,,Scattered Clouds,50,2013-09-16 22:55:00
6:15 PM,73.4,62.6,69,30.12,10.0,NE,8.1,-,N/A,,Clear,40,2013-09-16 23:15:00
6:35 PM,73.4,64.4,73,30.12,10.0,ENE,8.1,-,N/A,,Clear,60,2013-09-16 23:35:00
6:55 PM,73.4,64.4,73,30.12,10.0,NE,10.4,-,N/A,,Clear,50,2013-09-16 23:55:00
7:15 PM,71.6,64.4,78,30.12,10.0,NE,9.2,-,N/A,,Clear,40,2013-09-17 00:15:00
7:35 PM,71.6,64.4,78,30.12,10.0,NE,6.9,-,N/A,,Clear,40,2013-09-17 00:35:00
7:55 PM,71.6,64.4,78,30.12,10.0,NE,5.8,-,N/A,,Clear,50,2013-09-17 00:55:00
8:15 PM,71.6,64.4,78,30.13,10.0,ENE,6.9,-,N/A,,Scattered Clouds,70,2013-09-17 01:15:00
8:35 PM,71.6,64.4,78,30.13,10.0,ENE,12.7,-,N/A,,Mostly Cloudy,70,2013-09-17 01:35:00
8:55 PM,71.6,64.4,78,30.15,10.0,SSW,3.5,-,N/A,Rain,Light Rain,200,2013-09-17 01:55:00
9:15 PM,64.4,60.8,88,30.17,1.0,SSE,16.1,36.8,0.61,Rain,Heavy Rain,150,2013-09-17 02:15:00
9:35 PM,64.4,60.8,88,30.17,10.0,ESE,5.8,10.4,0.77,Rain,Light Rain,110,2013-09-17 02:35:00
9:55 PM,64.4,62.6,94,30.18,10.0,South,3.5,-,0.77,,Scattered Clouds,170,2013-09-17 02:55:00
10:15 PM,64.4,62.6,94,30.18,10.0,SE,6.9,-,N/A,,Scattered Clouds,140,2013-09-17 03:15:00
10:35 PM,64.4,62.6,94,30.18,10.0,SE,8.1,-,N/A,,Mostly Cloudy,140,2013-09-17 03:35:00
10:55 PM,64.4,62.6,94,30.19,10.0,SE,3.5,-,N/A,,Overcast,140,2013-09-17 03:55:00
11:15 PM,64.4,62.6,94,30.19,10.0,Calm,Calm,-,N/A,,Overcast,0,2013-09-17 04:15:00
11:35 PM,64.4,62.6,94,30.18,10.0,SSE,4.6,-,N/A,,Mostly Cloudy,150,2013-09-17 04:35:00
11:55 PM,66.2,62.6,88,30.18,10.0,SSW,4.6,-,N/A,,Scattered Clouds,200,2013-09-17 04:55:00